sensor_id;sensor_type;location;lat;lon;timestamp;pressure;altitude;pressure_sealevel;temperature
19644;BMP180;9970;-36.854;174.870;2022-09-03T00:02:32;101681.00;;;15.80
19644;BMP180;9970;-36.854;174.870;2022-09-03T00:08:16;101671.00;;;15.90
19644;BMP180;9970;-36.854;174.870;2022-09-03T00:11:04;101666.00;;;15.90
19644;BMP180;9970;-36.854;174.870;2022-09-03T00:13:40;101652.00;;;15.90
19644;BMP180;9970;-36.854;174.870;2022-09-03T00:16:14;101640.00;;;15.90
19644;BMP180;9970;-36.854;174.870;2022-09-03T00:18:56;101631.00;;;15.90
19644;BMP180;9970;-36.854;174.870;2022-09-03T00:21:46;101627.00;;;16.00
19644;BMP180;9970;-36.854;174.870;2022-09-03T00:24:20;101621.00;;;16.00
19644;BMP180;9970;-36.854;174.870;2022-09-03T00:26:54;101612.00;;;16.10
19644;BMP180;9970;-36.854;174.870;2022-09-03T00:29:34;101598.00;;;16.10
19644;BMP180;9970;-36.854;174.870;2022-09-03T00:32:10;101590.00;;;16.20
19644;BMP180;9970;-36.854;174.870;2022-09-03T00:34:42;101581.00;;;16.20
19644;BMP180;9970;-36.854;174.870;2022-09-03T00:37:15;101579.00;;;16.30
19644;BMP180;9970;-36.854;174.870;2022-09-03T00:39:49;101577.00;;;16.40
19644;BMP180;9970;-36.854;174.870;2022-09-03T00:42:46;101576.00;;;16.40
19644;BMP180;9970;-36.854;174.870;2022-09-03T00:47:51;101571.00;;;16.50
19644;BMP180;9970;-36.854;174.870;2022-09-03T00:50:33;101567.00;;;16.60
19644;BMP180;9970;-36.854;174.870;2022-09-03T00:56:07;101565.00;;;16.60
19644;BMP180;9970;-36.854;174.870;2022-09-03T00:59:02;101551.00;;;16.70
19644;BMP180;9970;-36.854;174.870;2022-09-03T01:02:00;101547.00;;;16.70
19644;BMP180;9970;-36.854;174.870;2022-09-03T01:04:54;101537.00;;;16.70
19644;BMP180;9970;-36.854;174.870;2022-09-03T01:08:12;101535.00;;;16.80
19644;BMP180;9970;-36.854;174.870;2022-09-03T01:10:35;101521.00;;;16.80
19644;BMP180;9970;-36.854;174.870;2022-09-03T01:13:20;101518.00;;;16.90
19644;BMP180;9970;-36.854;174.870;2022-09-03T01:16:38;101506.00;;;16.90
19644;BMP180;9970;-36.854;174.870;2022-09-03T01:21:54;101496.00;;;17.00
19644;BMP180;9970;-36.854;174.870;2022-09-03T01:30:32;101480.00;;;17.10
19644;BMP180;9970;-36.854;174.870;2022-09-03T01:36:06;101489.00;;;17.20
19644;BMP180;9970;-36.854;174.870;2022-09-03T01:38:51;101481.00;;;17.20
19644;BMP180;9970;-36.854;174.870;2022-09-03T01:41:36;101475.00;;;17.20
19644;BMP180;9970;-36.854;174.870;2022-09-03T01:47:39;101470.00;;;17.30
19644;BMP180;9970;-36.854;174.870;2022-09-03T01:52:49;101478.00;;;17.30
19644;BMP180;9970;-36.854;174.870;2022-09-03T01:55:40;101474.00;;;17.30
19644;BMP180;9970;-36.854;174.870;2022-09-03T01:58:28;101472.00;;;17.30
19644;BMP180;9970;-36.854;174.870;2022-09-03T02:01:09;101482.00;;;17.30
19644;BMP180;9970;-36.854;174.870;2022-09-03T02:03:39;101478.00;;;17.30
19644;BMP180;9970;-36.854;174.870;2022-09-03T02:06:13;101460.00;;;17.30
19644;BMP180;9970;-36.854;174.870;2022-09-03T02:08:51;101458.00;;;17.30
19644;BMP180;9970;-36.854;174.870;2022-09-03T02:11:24;101453.00;;;17.40
19644;BMP180;9970;-36.854;174.870;2022-09-03T02:13:57;101449.00;;;17.30
19644;BMP180;9970;-36.854;174.870;2022-09-03T02:16:32;101445.00;;;17.30
19644;BMP180;9970;-36.854;174.870;2022-09-03T02:19:08;101453.00;;;17.40
19644;BMP180;9970;-36.854;174.870;2022-09-03T02:21:49;101438.00;;;17.30
19644;BMP180;9970;-36.854;174.870;2022-09-03T02:24:19;101432.00;;;17.40
19644;BMP180;9970;-36.854;174.870;2022-09-03T02:26:53;101427.00;;;17.40
19644;BMP180;9970;-36.854;174.870;2022-09-03T02:29:26;101431.00;;;17.40
19644;BMP180;9970;-36.854;174.870;2022-09-03T02:31:59;101432.00;;;17.40
19644;BMP180;9970;-36.854;174.870;2022-09-03T02:34:32;101426.00;;;17.40
19644;BMP180;9970;-36.854;174.870;2022-09-03T02:37:15;101429.00;;;17.40
19644;BMP180;9970;-36.854;174.870;2022-09-03T02:39:49;101417.00;;;17.40
19644;BMP180;9970;-36.854;174.870;2022-09-03T02:42:26;101421.00;;;17.40
19644;BMP180;9970;-36.854;174.870;2022-09-03T02:45:23;101422.00;;;17.40
19644;BMP180;9970;-36.854;174.870;2022-09-03T02:47:57;101424.00;;;17.30
19644;BMP180;9970;-36.854;174.870;2022-09-03T02:50:30;101434.00;;;17.30
19644;BMP180;9970;-36.854;174.870;2022-09-03T02:53:04;101425.00;;;17.30
19644;BMP180;9970;-36.854;174.870;2022-09-03T02:55:36;101420.00;;;17.20
19644;BMP180;9970;-36.854;174.870;2022-09-03T02:58:10;101420.00;;;17.20
19644;BMP180;9970;-36.854;174.870;2022-09-03T03:00:43;101430.00;;;17.20
19644;BMP180;9970;-36.854;174.870;2022-09-03T03:03:18;101413.00;;;17.20
19644;BMP180;9970;-36.854;174.870;2022-09-03T03:05:55;101415.00;;;17.20
19644;BMP180;9970;-36.854;174.870;2022-09-03T03:08:30;101414.00;;;17.10
19644;BMP180;9970;-36.854;174.870;2022-09-03T03:11:04;101413.00;;;17.10
19644;BMP180;9970;-36.854;174.870;2022-09-03T03:13:39;101416.00;;;17.10
19644;BMP180;9970;-36.854;174.870;2022-09-03T03:16:18;101415.00;;;17.10
19644;BMP180;9970;-36.854;174.870;2022-09-03T03:18:55;101420.00;;;17.10
19644;BMP180;9970;-36.854;174.870;2022-09-03T03:21:46;101415.00;;;17.10
19644;BMP180;9970;-36.854;174.870;2022-09-03T03:24:21;101411.00;;;17.00
19644;BMP180;9970;-36.854;174.870;2022-09-03T03:27:01;101402.00;;;17.00
19644;BMP180;9970;-36.854;174.870;2022-09-03T03:29:39;101409.00;;;17.00
19644;BMP180;9970;-36.854;174.870;2022-09-03T03:32:12;101406.00;;;17.00
19644;BMP180;9970;-36.854;174.870;2022-09-03T03:34:45;101401.00;;;16.90
19644;BMP180;9970;-36.854;174.870;2022-09-03T03:37:18;101395.00;;;16.90
19644;BMP180;9970;-36.854;174.870;2022-09-03T03:39:51;101395.00;;;16.80
19644;BMP180;9970;-36.854;174.870;2022-09-03T03:42:24;101385.00;;;16.80
19644;BMP180;9970;-36.854;174.870;2022-09-03T03:44:56;101384.00;;;16.80
19644;BMP180;9970;-36.854;174.870;2022-09-03T03:47:29;101381.00;;;16.80
19644;BMP180;9970;-36.854;174.870;2022-09-03T03:50:08;101392.00;;;16.80
19644;BMP180;9970;-36.854;174.870;2022-09-03T03:52:41;101394.00;;;16.80
19644;BMP180;9970;-36.854;174.870;2022-09-03T03:55:14;101385.00;;;16.80
19644;BMP180;9970;-36.854;174.870;2022-09-03T03:57:46;101383.00;;;16.80
19644;BMP180;9970;-36.854;174.870;2022-09-03T04:00:23;101378.00;;;16.70
19644;BMP180;9970;-36.854;174.870;2022-09-03T04:02:57;101366.00;;;16.70
19644;BMP180;9970;-36.854;174.870;2022-09-03T04:05:31;101373.00;;;16.70
19644;BMP180;9970;-36.854;174.870;2022-09-03T04:08:05;101376.00;;;16.70
19644;BMP180;9970;-36.854;174.870;2022-09-03T04:10:38;101363.00;;;16.70
19644;BMP180;9970;-36.854;174.870;2022-09-03T04:13:10;101373.00;;;16.70
19644;BMP180;9970;-36.854;174.870;2022-09-03T04:15:43;101367.00;;;16.70
19644;BMP180;9970;-36.854;174.870;2022-09-03T04:18:20;101377.00;;;16.60
19644;BMP180;9970;-36.854;174.870;2022-09-03T04:20:57;101368.00;;;16.60
19644;BMP180;9970;-36.854;174.870;2022-09-03T04:23:28;101372.00;;;16.60
19644;BMP180;9970;-36.854;174.870;2022-09-03T04:26:01;101368.00;;;16.60
19644;BMP180;9970;-36.854;174.870;2022-09-03T04:28:34;101368.00;;;16.60
19644;BMP180;9970;-36.854;174.870;2022-09-03T04:31:08;101349.00;;;16.60
19644;BMP180;9970;-36.854;174.870;2022-09-03T04:33:42;101360.00;;;16.50
19644;BMP180;9970;-36.854;174.870;2022-09-03T04:36:17;101358.00;;;16.50
19644;BMP180;9970;-36.854;174.870;2022-09-03T04:38:51;101360.00;;;16.50
19644;BMP180;9970;-36.854;174.870;2022-09-03T04:41:29;101365.00;;;16.50
19644;BMP180;9970;-36.854;174.870;2022-09-03T04:44:03;101366.00;;;16.50
19644;BMP180;9970;-36.854;174.870;2022-09-03T04:46:35;101366.00;;;16.50
19644;BMP180;9970;-36.854;174.870;2022-09-03T04:49:09;101362.00;;;16.50
19644;BMP180;9970;-36.854;174.870;2022-09-03T04:51:42;101349.00;;;16.40
19644;BMP180;9970;-36.854;174.870;2022-09-03T04:54:15;101352.00;;;16.40
19644;BMP180;9970;-36.854;174.870;2022-09-03T04:56:48;101352.00;;;16.50
19644;BMP180;9970;-36.854;174.870;2022-09-03T04:59:20;101361.00;;;16.50
19644;BMP180;9970;-36.854;174.870;2022-09-03T05:01:53;101358.00;;;16.50
19644;BMP180;9970;-36.854;174.870;2022-09-03T05:04:26;101344.00;;;16.50
19644;BMP180;9970;-36.854;174.870;2022-09-03T05:07:01;101357.00;;;16.50
19644;BMP180;9970;-36.854;174.870;2022-09-03T05:09:34;101352.00;;;16.50
19644;BMP180;9970;-36.854;174.870;2022-09-03T05:12:07;101341.00;;;16.50
19644;BMP180;9970;-36.854;174.870;2022-09-03T05:14:40;101338.00;;;16.40
19644;BMP180;9970;-36.854;174.870;2022-09-03T05:17:13;101337.00;;;16.40
19644;BMP180;9970;-36.854;174.870;2022-09-03T05:19:46;101326.00;;;16.40
19644;BMP180;9970;-36.854;174.870;2022-09-03T05:22:19;101325.00;;;16.40
19644;BMP180;9970;-36.854;174.870;2022-09-03T05:24:56;101337.00;;;16.30
19644;BMP180;9970;-36.854;174.870;2022-09-03T05:27:29;101336.00;;;16.30
19644;BMP180;9970;-36.854;174.870;2022-09-03T05:30:02;101319.00;;;16.30
19644;BMP180;9970;-36.854;174.870;2022-09-03T05:32:35;101339.00;;;16.30
19644;BMP180;9970;-36.854;174.870;2022-09-03T05:35:09;101335.00;;;16.30
19644;BMP180;9970;-36.854;174.870;2022-09-03T05:37:41;101327.00;;;16.20
19644;BMP180;9970;-36.854;174.870;2022-09-03T05:40:14;101315.00;;;16.20
19644;BMP180;9970;-36.854;174.870;2022-09-03T05:42:47;101314.00;;;16.20
19644;BMP180;9970;-36.854;174.870;2022-09-03T05:45:20;101291.00;;;16.20
19644;BMP180;9970;-36.854;174.870;2022-09-03T05:47:53;101291.00;;;16.10
19644;BMP180;9970;-36.854;174.870;2022-09-03T05:50:26;101290.00;;;16.10
19644;BMP180;9970;-36.854;174.870;2022-09-03T05:52:59;101293.00;;;16.10
19644;BMP180;9970;-36.854;174.870;2022-09-03T05:55:32;101292.00;;;16.00
19644;BMP180;9970;-36.854;174.870;2022-09-03T05:58:05;101295.00;;;16.00
19644;BMP180;9970;-36.854;174.870;2022-09-03T06:00:38;101290.00;;;16.00
19644;BMP180;9970;-36.854;174.870;2022-09-03T06:03:11;101302.00;;;15.90
19644;BMP180;9970;-36.854;174.870;2022-09-03T06:05:52;101297.00;;;15.90
19644;BMP180;9970;-36.854;174.870;2022-09-03T06:08:26;101297.00;;;15.80
19644;BMP180;9970;-36.854;174.870;2022-09-03T06:10:59;101297.00;;;15.80
19644;BMP180;9970;-36.854;174.870;2022-09-03T06:13:34;101298.00;;;15.70
19644;BMP180;9970;-36.854;174.870;2022-09-03T06:16:07;101299.00;;;15.70
19644;BMP180;9970;-36.854;174.870;2022-09-03T06:18:40;101297.00;;;15.70
19644;BMP180;9970;-36.854;174.870;2022-09-03T06:21:13;101296.00;;;15.70
19644;BMP180;9970;-36.854;174.870;2022-09-03T06:23:51;101298.00;;;15.70
19644;BMP180;9970;-36.854;174.870;2022-09-03T06:26:27;101287.00;;;15.70
19644;BMP180;9970;-36.854;174.870;2022-09-03T06:29:00;101290.00;;;15.70
19644;BMP180;9970;-36.854;174.870;2022-09-03T06:31:33;101287.00;;;15.70
19644;BMP180;9970;-36.854;174.870;2022-09-03T06:34:10;101285.00;;;15.70
19644;BMP180;9970;-36.854;174.870;2022-09-03T06:36:43;101286.00;;;15.70
19644;BMP180;9970;-36.854;174.870;2022-09-03T06:39:22;101280.00;;;15.70
19644;BMP180;9970;-36.854;174.870;2022-09-03T06:41:55;101281.00;;;15.70
19644;BMP180;9970;-36.854;174.870;2022-09-03T06:44:29;101286.00;;;15.70
19644;BMP180;9970;-36.854;174.870;2022-09-03T06:47:01;101279.00;;;15.70
19644;BMP180;9970;-36.854;174.870;2022-09-03T06:49:34;101276.00;;;15.70
19644;BMP180;9970;-36.854;174.870;2022-09-03T06:52:09;101270.00;;;15.70
19644;BMP180;9970;-36.854;174.870;2022-09-03T06:54:46;101273.00;;;15.70
19644;BMP180;9970;-36.854;174.870;2022-09-03T06:57:19;101273.00;;;15.70
19644;BMP180;9970;-36.854;174.870;2022-09-03T06:59:52;101275.00;;;15.70
19644;BMP180;9970;-36.854;174.870;2022-09-03T07:02:25;101277.00;;;15.70
19644;BMP180;9970;-36.854;174.870;2022-09-03T07:04:58;101281.00;;;15.70
19644;BMP180;9970;-36.854;174.870;2022-09-03T07:07:32;101288.00;;;15.70
19644;BMP180;9970;-36.854;174.870;2022-09-03T07:10:06;101285.00;;;15.70
19644;BMP180;9970;-36.854;174.870;2022-09-03T07:12:40;101284.00;;;15.70
19644;BMP180;9970;-36.854;174.870;2022-09-03T07:15:13;101288.00;;;15.70
19644;BMP180;9970;-36.854;174.870;2022-09-03T07:17:46;101285.00;;;15.70
19644;BMP180;9970;-36.854;174.870;2022-09-03T07:20:19;101284.00;;;15.70
19644;BMP180;9970;-36.854;174.870;2022-09-03T07:22:56;101297.00;;;15.70
19644;BMP180;9970;-36.854;174.870;2022-09-03T07:25:28;101296.00;;;15.60
19644;BMP180;9970;-36.854;174.870;2022-09-03T07:28:04;101291.00;;;15.60
19644;BMP180;9970;-36.854;174.870;2022-09-03T07:30:35;101306.00;;;15.60
19644;BMP180;9970;-36.854;174.870;2022-09-03T07:33:13;101294.00;;;15.60
19644;BMP180;9970;-36.854;174.870;2022-09-03T07:35:45;101297.00;;;15.60
19644;BMP180;9970;-36.854;174.870;2022-09-03T07:38:19;101296.00;;;15.60
19644;BMP180;9970;-36.854;174.870;2022-09-03T07:41:00;101293.00;;;15.50
19644;BMP180;9970;-36.854;174.870;2022-09-03T07:43:38;101298.00;;;15.50
19644;BMP180;9970;-36.854;174.870;2022-09-03T07:46:12;101290.00;;;15.50
19644;BMP180;9970;-36.854;174.870;2022-09-03T07:48:47;101290.00;;;15.40
19644;BMP180;9970;-36.854;174.870;2022-09-03T07:51:23;101287.00;;;15.40
19644;BMP180;9970;-36.854;174.870;2022-09-03T07:54:00;101291.00;;;15.30
19644;BMP180;9970;-36.854;174.870;2022-09-03T07:56:43;101297.00;;;15.30
19644;BMP180;9970;-36.854;174.870;2022-09-03T07:59:28;101290.00;;;15.30
19644;BMP180;9970;-36.854;174.870;2022-09-03T08:02:05;101273.00;;;15.30
19644;BMP180;9970;-36.854;174.870;2022-09-03T08:04:39;101261.00;;;15.30
19644;BMP180;9970;-36.854;174.870;2022-09-03T08:07:12;101254.00;;;15.30
19644;BMP180;9970;-36.854;174.870;2022-09-03T08:09:45;101271.00;;;15.30
19644;BMP180;9970;-36.854;174.870;2022-09-03T08:12:18;101269.00;;;15.20
19644;BMP180;9970;-36.854;174.870;2022-09-03T08:14:51;101259.00;;;15.20
19644;BMP180;9970;-36.854;174.870;2022-09-03T08:17:24;101248.00;;;15.20
19644;BMP180;9970;-36.854;174.870;2022-09-03T08:19:57;101242.00;;;15.20
19644;BMP180;9970;-36.854;174.870;2022-09-03T08:22:31;101253.00;;;15.10
19644;BMP180;9970;-36.854;174.870;2022-09-03T08:25:04;101262.00;;;15.10
19644;BMP180;9970;-36.854;174.870;2022-09-03T08:27:38;101268.00;;;15.10
19644;BMP180;9970;-36.854;174.870;2022-09-03T08:30:15;101259.00;;;15.00
19644;BMP180;9970;-36.854;174.870;2022-09-03T08:32:48;101260.00;;;15.00
19644;BMP180;9970;-36.854;174.870;2022-09-03T08:35:22;101252.00;;;15.00
19644;BMP180;9970;-36.854;174.870;2022-09-03T08:37:54;101251.00;;;15.00
19644;BMP180;9970;-36.854;174.870;2022-09-03T08:40:28;101250.00;;;14.90
19644;BMP180;9970;-36.854;174.870;2022-09-03T08:43:14;101258.00;;;14.90
19644;BMP180;9970;-36.854;174.870;2022-09-03T08:45:50;101252.00;;;14.90
19644;BMP180;9970;-36.854;174.870;2022-09-03T08:48:23;101252.00;;;14.90
19644;BMP180;9970;-36.854;174.870;2022-09-03T08:50:58;101254.00;;;14.90
19644;BMP180;9970;-36.854;174.870;2022-09-03T08:53:39;101260.00;;;14.90
19644;BMP180;9970;-36.854;174.870;2022-09-03T08:56:13;101264.00;;;14.90
19644;BMP180;9970;-36.854;174.870;2022-09-03T08:58:46;101268.00;;;14.90
19644;BMP180;9970;-36.854;174.870;2022-09-03T09:07:16;101250.00;;;14.80
19644;BMP180;9970;-36.854;174.870;2022-09-03T09:10:05;101253.00;;;14.80
19644;BMP180;9970;-36.854;174.870;2022-09-03T09:15:36;101235.00;;;14.70
19644;BMP180;9970;-36.854;174.870;2022-09-03T09:18:18;101235.00;;;14.70
19644;BMP180;9970;-36.854;174.870;2022-09-03T09:20:53;101237.00;;;14.70
19644;BMP180;9970;-36.854;174.870;2022-09-03T09:23:46;101240.00;;;14.70
19644;BMP180;9970;-36.854;174.870;2022-09-03T09:26:20;101236.00;;;14.70
19644;BMP180;9970;-36.854;174.870;2022-09-03T09:28:59;101231.00;;;14.70
19644;BMP180;9970;-36.854;174.870;2022-09-03T09:31:32;101236.00;;;14.70
19644;BMP180;9970;-36.854;174.870;2022-09-03T09:34:06;101232.00;;;14.70
19644;BMP180;9970;-36.854;174.870;2022-09-03T09:36:52;101220.00;;;14.70
19644;BMP180;9970;-36.854;174.870;2022-09-03T09:39:19;101229.00;;;14.70
19644;BMP180;9970;-36.854;174.870;2022-09-03T09:42:04;101227.00;;;14.70
19644;BMP180;9970;-36.854;174.870;2022-09-03T09:44:37;101227.00;;;14.70
19644;BMP180;9970;-36.854;174.870;2022-09-03T09:47:29;101225.00;;;14.70
19644;BMP180;9970;-36.854;174.870;2022-09-03T09:50:15;101215.00;;;14.70
19644;BMP180;9970;-36.854;174.870;2022-09-03T09:52:40;101217.00;;;14.60
19644;BMP180;9970;-36.854;174.870;2022-09-03T09:55:20;101209.00;;;14.70
19644;BMP180;9970;-36.854;174.870;2022-09-03T09:58:06;101214.00;;;14.70
19644;BMP180;9970;-36.854;174.870;2022-09-03T10:01:02;101208.00;;;14.70
19644;BMP180;9970;-36.854;174.870;2022-09-03T10:03:34;101213.00;;;14.70
19644;BMP180;9970;-36.854;174.870;2022-09-03T10:06:12;101210.00;;;14.70
19644;BMP180;9970;-36.854;174.870;2022-09-03T10:09:07;101208.00;;;14.70
19644;BMP180;9970;-36.854;174.870;2022-09-03T10:11:48;101210.00;;;14.60
19644;BMP180;9970;-36.854;174.870;2022-09-03T10:17:07;101209.00;;;14.60
19644;BMP180;9970;-36.854;174.870;2022-09-03T10:19:45;101200.00;;;14.60
19644;BMP180;9970;-36.854;174.870;2022-09-03T10:22:15;101194.00;;;14.60
19644;BMP180;9970;-36.854;174.870;2022-09-03T10:25:01;101187.00;;;14.60
19644;BMP180;9970;-36.854;174.870;2022-09-03T10:27:34;101190.00;;;14.60
19644;BMP180;9970;-36.854;174.870;2022-09-03T10:30:10;101192.00;;;14.60
19644;BMP180;9970;-36.854;174.870;2022-09-03T10:35:42;101197.00;;;14.60
19644;BMP180;9970;-36.854;174.870;2022-09-03T10:38:24;101191.00;;;14.60
19644;BMP180;9970;-36.854;174.870;2022-09-03T10:43:44;101178.00;;;14.70
19644;BMP180;9970;-36.854;174.870;2022-09-03T10:46:27;101174.00;;;14.70
19644;BMP180;9970;-36.854;174.870;2022-09-03T10:52:02;101174.00;;;14.70
19644;BMP180;9970;-36.854;174.870;2022-09-03T10:54:51;101167.00;;;14.70
19644;BMP180;9970;-36.854;174.870;2022-09-03T10:57:44;101172.00;;;14.60
19644;BMP180;9970;-36.854;174.870;2022-09-03T11:00:16;101169.00;;;14.60
19644;BMP180;9970;-36.854;174.870;2022-09-03T11:05:34;101167.00;;;14.70
19644;BMP180;9970;-36.854;174.870;2022-09-03T11:08:11;101169.00;;;14.70
19644;BMP180;9970;-36.854;174.870;2022-09-03T11:10:48;101168.00;;;14.70
19644;BMP180;9970;-36.854;174.870;2022-09-03T11:13:29;101166.00;;;14.70
19644;BMP180;9970;-36.854;174.870;2022-09-03T11:16:10;101156.00;;;14.70
19644;BMP180;9970;-36.854;174.870;2022-09-03T11:18:53;101158.00;;;14.70
19644;BMP180;9970;-36.854;174.870;2022-09-03T11:21:28;101158.00;;;14.70
19644;BMP180;9970;-36.854;174.870;2022-09-03T11:24:16;101144.00;;;14.70
19644;BMP180;9970;-36.854;174.870;2022-09-03T11:26:55;101144.00;;;14.70
19644;BMP180;9970;-36.854;174.870;2022-09-03T11:32:49;101147.00;;;14.70
19644;BMP180;9970;-36.854;174.870;2022-09-03T11:38:19;101138.00;;;14.80
19644;BMP180;9970;-36.854;174.870;2022-09-03T11:43:33;101143.00;;;14.80
19644;BMP180;9970;-36.854;174.870;2022-09-03T11:49:07;101132.00;;;14.90
19644;BMP180;9970;-36.854;174.870;2022-09-03T11:51:30;101129.00;;;14.90
19644;BMP180;9970;-36.854;174.870;2022-09-03T11:57:10;101132.00;;;14.90
19644;BMP180;9970;-36.854;174.870;2022-09-03T11:59:43;101126.00;;;14.90
19644;BMP180;9970;-36.854;174.870;2022-09-03T12:05:04;101131.00;;;15.00
19644;BMP180;9970;-36.854;174.870;2022-09-03T12:07:43;101147.00;;;15.00
19644;BMP180;9970;-36.854;174.870;2022-09-03T12:10:16;101140.00;;;15.10
19644;BMP180;9970;-36.854;174.870;2022-09-03T12:13:04;101134.00;;;15.10
19644;BMP180;9970;-36.854;174.870;2022-09-03T12:16:06;101139.00;;;15.10
19644;BMP180;9970;-36.854;174.870;2022-09-03T12:18:34;101137.00;;;15.10
19644;BMP180;9970;-36.854;174.870;2022-09-03T12:21:08;101134.00;;;15.10
19644;BMP180;9970;-36.854;174.870;2022-09-03T12:23:43;101137.00;;;15.10
19644;BMP180;9970;-36.854;174.870;2022-09-03T12:26:21;101135.00;;;15.20
19644;BMP180;9970;-36.854;174.870;2022-09-03T12:28:56;101135.00;;;15.20
19644;BMP180;9970;-36.854;174.870;2022-09-03T12:31:31;101139.00;;;15.20
19644;BMP180;9970;-36.854;174.870;2022-09-03T12:34:08;101138.00;;;15.20
19644;BMP180;9970;-36.854;174.870;2022-09-03T12:36:48;101123.00;;;15.20
19644;BMP180;9970;-36.854;174.870;2022-09-03T12:39:24;101128.00;;;15.20
19644;BMP180;9970;-36.854;174.870;2022-09-03T12:42:03;101131.00;;;15.20
19644;BMP180;9970;-36.854;174.870;2022-09-03T12:44:38;101133.00;;;15.30
19644;BMP180;9970;-36.854;174.870;2022-09-03T12:47:14;101136.00;;;15.30
19644;BMP180;9970;-36.854;174.870;2022-09-03T12:49:56;101129.00;;;15.30
19644;BMP180;9970;-36.854;174.870;2022-09-03T12:52:33;101131.00;;;15.30
19644;BMP180;9970;-36.854;174.870;2022-09-03T12:57:48;101121.00;;;15.30
19644;BMP180;9970;-36.854;174.870;2022-09-03T13:00:19;101128.00;;;15.30
19644;BMP180;9970;-36.854;174.870;2022-09-03T13:05:36;101125.00;;;15.30
19644;BMP180;9970;-36.854;174.870;2022-09-03T13:08:12;101121.00;;;15.30
19644;BMP180;9970;-36.854;174.870;2022-09-03T13:10:43;101132.00;;;15.30
19644;BMP180;9970;-36.854;174.870;2022-09-03T13:13:31;101125.00;;;15.30
19644;BMP180;9970;-36.854;174.870;2022-09-03T13:21:32;101122.00;;;15.30
19644;BMP180;9970;-36.854;174.870;2022-09-03T13:24:06;101142.00;;;15.30
19644;BMP180;9970;-36.854;174.870;2022-09-03T13:35:33;101133.00;;;15.20
19644;BMP180;9970;-36.854;174.870;2022-09-03T13:41:28;101135.00;;;15.20
19644;BMP180;9970;-36.854;174.870;2022-09-03T13:44:08;101136.00;;;15.20
19644;BMP180;9970;-36.854;174.870;2022-09-03T13:52:39;101140.00;;;15.20
19644;BMP180;9970;-36.854;174.870;2022-09-03T13:58:59;101132.00;;;15.20
19644;BMP180;9970;-36.854;174.870;2022-09-03T14:00:51;101131.00;;;15.10
19644;BMP180;9970;-36.854;174.870;2022-09-03T14:03:30;101121.00;;;15.10
19644;BMP180;9970;-36.854;174.870;2022-09-03T14:17:35;101112.00;;;15.10
19644;BMP180;9970;-36.854;174.870;2022-09-03T14:20:20;101104.00;;;15.10
19644;BMP180;9970;-36.854;174.870;2022-09-03T14:23:02;101108.00;;;15.10
19644;BMP180;9970;-36.854;174.870;2022-09-03T14:25:32;101106.00;;;15.10
19644;BMP180;9970;-36.854;174.870;2022-09-03T14:29:02;101106.00;;;15.00
19644;BMP180;9970;-36.854;174.870;2022-09-03T14:36:44;101102.00;;;15.00
19644;BMP180;9970;-36.854;174.870;2022-09-03T14:42:16;101099.00;;;14.90
19644;BMP180;9970;-36.854;174.870;2022-09-03T14:53:55;101104.00;;;14.90
19644;BMP180;9970;-36.854;174.870;2022-09-03T14:56:27;101096.00;;;14.90
19644;BMP180;9970;-36.854;174.870;2022-09-03T14:59:19;101107.00;;;14.90
19644;BMP180;9970;-36.854;174.870;2022-09-03T15:07:48;101100.00;;;14.90
19644;BMP180;9970;-36.854;174.870;2022-09-03T15:13:16;101100.00;;;14.90
19644;BMP180;9970;-36.854;174.870;2022-09-03T15:16:07;101096.00;;;14.90
19644;BMP180;9970;-36.854;174.870;2022-09-03T15:21:39;101094.00;;;14.90
19644;BMP180;9970;-36.854;174.870;2022-09-03T15:26:59;101089.00;;;14.90
19644;BMP180;9970;-36.854;174.870;2022-09-03T15:29:50;101079.00;;;14.90
19644;BMP180;9970;-36.854;174.870;2022-09-03T15:32:35;101086.00;;;14.80
19644;BMP180;9970;-36.854;174.870;2022-09-03T15:37:53;101079.00;;;14.80
19644;BMP180;9970;-36.854;174.870;2022-09-03T15:43:29;101084.00;;;14.80
19644;BMP180;9970;-36.854;174.870;2022-09-03T15:46:09;101085.00;;;14.80
19644;BMP180;9970;-36.854;174.870;2022-09-03T15:49:04;101085.00;;;14.80
19644;BMP180;9970;-36.854;174.870;2022-09-03T15:51:34;101088.00;;;14.80
19644;BMP180;9970;-36.854;174.870;2022-09-03T15:54:18;101081.00;;;14.70
19644;BMP180;9970;-36.854;174.870;2022-09-03T15:57:01;101090.00;;;14.70
19644;BMP180;9970;-36.854;174.870;2022-09-03T16:02:45;101076.00;;;14.70
19644;BMP180;9970;-36.854;174.870;2022-09-03T16:11:08;101088.00;;;14.60
19644;BMP180;9970;-36.854;174.870;2022-09-03T16:19:49;101096.00;;;14.60
19644;BMP180;9970;-36.854;174.870;2022-09-03T16:22:25;101089.00;;;14.60
19644;BMP180;9970;-36.854;174.870;2022-09-03T16:25:23;101088.00;;;14.60
19644;BMP180;9970;-36.854;174.870;2022-09-03T16:28:08;101088.00;;;14.60
19644;BMP180;9970;-36.854;174.870;2022-09-03T16:36:49;101089.00;;;14.60
19644;BMP180;9970;-36.854;174.870;2022-09-03T16:45:29;101092.00;;;14.50
19644;BMP180;9970;-36.854;174.870;2022-09-03T16:48:21;101092.00;;;14.50
19644;BMP180;9970;-36.854;174.870;2022-09-03T16:59:44;101112.00;;;14.50
19644;BMP180;9970;-36.854;174.870;2022-09-03T17:08:21;101113.00;;;14.40
19644;BMP180;9970;-36.854;174.870;2022-09-03T17:13:39;101115.00;;;14.40
19644;BMP180;9970;-36.854;174.870;2022-09-03T17:24:42;101133.00;;;14.30
19644;BMP180;9970;-36.854;174.870;2022-09-03T17:27:42;101132.00;;;14.30
19644;BMP180;9970;-36.854;174.870;2022-09-03T17:30:20;101131.00;;;14.30
19644;BMP180;9970;-36.854;174.870;2022-09-03T17:35:47;101131.00;;;14.30
19644;BMP180;9970;-36.854;174.870;2022-09-03T17:38:36;101135.00;;;14.30
19644;BMP180;9970;-36.854;174.870;2022-09-03T17:44:13;101141.00;;;14.20
19644;BMP180;9970;-36.854;174.870;2022-09-03T17:50:16;101146.00;;;14.20
19644;BMP180;9970;-36.854;174.870;2022-09-03T17:52:38;101146.00;;;14.20
19644;BMP180;9970;-36.854;174.870;2022-09-03T17:57:56;101147.00;;;14.20
19644;BMP180;9970;-36.854;174.870;2022-09-03T18:00:32;101148.00;;;14.10